sensor_id;sensor_type;location;lat;lon;timestamp;temperature;humidity
20728;DHT22;10525;50.154;8.198;2022-12-05T00:00:12;1.50;99.90
20728;DHT22;10525;50.154;8.198;2022-12-05T00:02:40;1.50;99.90
20728;DHT22;10525;50.154;8.198;2022-12-05T00:05:09;1.40;99.90
20728;DHT22;10525;50.154;8.198;2022-12-05T00:07:36;1.40;99.90
20728;DHT22;10525;50.154;8.198;2022-12-05T00:10:04;1.40;99.90
20728;DHT22;10525;50.154;8.198;2022-12-05T00:12:31;1.50;99.90
20728;DHT22;10525;50.154;8.198;2022-12-05T00:14:57;1.40;99.90
20728;DHT22;10525;50.154;8.198;2022-12-05T00:17:24;1.40;99.90
20728;DHT22;10525;50.154;8.198;2022-12-05T00:19:52;1.40;99.90
20728;DHT22;10525;50.154;8.198;2022-12-05T00:22:19;1.40;99.90
20728;DHT22;10525;50.154;8.198;2022-12-05T00:24:45;1.50;99.90
20728;DHT22;10525;50.154;8.198;2022-12-05T00:27:12;1.50;99.90
20728;DHT22;10525;50.154;8.198;2022-12-05T00:29:39;1.50;99.90
20728;DHT22;10525;50.154;8.198;2022-12-05T00:32:06;1.50;99.90
20728;DHT22;10525;50.154;8.198;2022-12-05T00:34:32;1.50;99.90
20728;DHT22;10525;50.154;8.198;2022-12-05T00:37:00;1.50;99.90
20728;DHT22;10525;50.154;8.198;2022-12-05T00:39:27;1.40;99.90
20728;DHT22;10525;50.154;8.198;2022-12-05T00:41:54;1.40;99.90
20728;DHT22;10525;50.154;8.198;2022-12-05T00:44:20;1.50;99.90
20728;DHT22;10525;50.154;8.198;2022-12-05T00:46:47;1.50;99.90
20728;DHT22;10525;50.154;8.198;2022-12-05T00:49:14;1.50;99.90
20728;DHT22;10525;50.154;8.198;2022-12-05T00:51:41;1.50;99.90
20728;DHT22;10525;50.154;8.198;2022-12-05T00:54:12;1.40;99.90
20728;DHT22;10525;50.154;8.198;2022-12-05T00:56:39;1.50;99.90
20728;DHT22;10525;50.154;8.198;2022-12-05T00:59:07;1.40;99.90
20728;DHT22;10525;50.154;8.198;2022-12-05T01:01:35;1.40;99.90
20728;DHT22;10525;50.154;8.198;2022-12-05T01:04:04;1.40;99.90
20728;DHT22;10525;50.154;8.198;2022-12-05T01:06:31;1.40;99.90
20728;DHT22;10525;50.154;8.198;2022-12-05T01:08:59;1.40;99.90
20728;DHT22;10525;50.154;8.198;2022-12-05T01:11:27;1.40;99.90
20728;DHT22;10525;50.154;8.198;2022-12-05T01:13:55;1.50;99.90
20728;DHT22;10525;50.154;8.198;2022-12-05T01:16:24;1.50;99.90
20728;DHT22;10525;50.154;8.198;2022-12-05T01:18:51;1.40;99.90
20728;DHT22;10525;50.154;8.198;2022-12-05T01:21:19;1.40;99.90
20728;DHT22;10525;50.154;8.198;2022-12-05T01:23:46;1.40;99.90
20728;DHT22;10525;50.154;8.198;2022-12-05T01:26:15;1.40;99.90
20728;DHT22;10525;50.154;8.198;2022-12-05T01:28:43;1.40;99.90
20728;DHT22;10525;50.154;8.198;2022-12-05T01:31:16;1.40;99.90
20728;DHT22;10525;50.154;8.198;2022-12-05T01:33:43;1.50;99.90
20728;DHT22;10525;50.154;8.198;2022-12-05T01:36:10;1.50;99.90
20728;DHT22;10525;50.154;8.198;2022-12-05T01:38:38;1.50;99.90
20728;DHT22;10525;50.154;8.198;2022-12-05T01:41:06;1.50;99.90
20728;DHT22;10525;50.154;8.198;2022-12-05T01:43:54;1.50;99.90
20728;DHT22;10525;50.154;8.198;2022-12-05T01:46:21;1.50;99.90
20728;DHT22;10525;50.154;8.198;2022-12-05T01:48:49;1.50;99.90
20728;DHT22;10525;50.154;8.198;2022-12-05T01:51:17;1.50;99.90
20728;DHT22;10525;50.154;8.198;2022-12-05T01:53:43;1.50;99.90
20728;DHT22;10525;50.154;8.198;2022-12-05T01:56:11;1.50;99.90
20728;DHT22;10525;50.154;8.198;2022-12-05T01:58:41;1.40;99.90
20728;DHT22;10525;50.154;8.198;2022-12-05T02:01:10;1.50;99.90
20728;DHT22;10525;50.154;8.198;2022-12-05T02:03:37;1.50;99.90
20728;DHT22;10525;50.154;8.198;2022-12-05T02:06:06;1.60;99.90
20728;DHT22;10525;50.154;8.198;2022-12-05T02:08:33;1.50;99.90
20728;DHT22;10525;50.154;8.198;2022-12-05T02:11:00;1.50;99.90
20728;DHT22;10525;50.154;8.198;2022-12-05T02:13:37;1.50;99.90
20728;DHT22;10525;50.154;8.198;2022-12-05T02:16:13;1.50;99.90
20728;DHT22;10525;50.154;8.198;2022-12-05T02:18:53;1.50;99.90
20728;DHT22;10525;50.154;8.198;2022-12-05T02:21:52;1.50;99.90
20728;DHT22;10525;50.154;8.198;2022-12-05T02:24:53;1.50;99.90
20728;DHT22;10525;50.154;8.198;2022-12-05T02:27:36;1.50;99.90
20728;DHT22;10525;50.154;8.198;2022-12-05T02:30:08;1.50;99.90
20728;DHT22;10525;50.154;8.198;2022-12-05T02:32:46;1.60;99.90
20728;DHT22;10525;50.154;8.198;2022-12-05T02:35:29;1.50;99.90
20728;DHT22;10525;50.154;8.198;2022-12-05T02:38:07;1.50;99.90
20728;DHT22;10525;50.154;8.198;2022-12-05T02:40:42;1.50;99.90
20728;DHT22;10525;50.154;8.198;2022-12-05T02:43:16;1.50;99.90
20728;DHT22;10525;50.154;8.198;2022-12-05T02:45:47;1.50;99.90
20728;DHT22;10525;50.154;8.198;2022-12-05T02:48:17;1.50;99.90
20728;DHT22;10525;50.154;8.198;2022-12-05T02:50:46;1.50;99.90
20728;DHT22;10525;50.154;8.198;2022-12-05T02:53:15;1.60;99.90
20728;DHT22;10525;50.154;8.198;2022-12-05T02:55:43;1.50;99.90
20728;DHT22;10525;50.154;8.198;2022-12-05T02:58:14;1.50;99.90
20728;DHT22;10525;50.154;8.198;2022-12-05T03:00:46;1.50;99.90
20728;DHT22;10525;50.154;8.198;2022-12-05T03:03:15;1.40;99.90
20728;DHT22;10525;50.154;8.198;2022-12-05T03:05:47;1.40;99.90
20728;DHT22;10525;50.154;8.198;2022-12-05T03:08:18;1.50;99.90
20728;DHT22;10525;50.154;8.198;2022-12-05T03:10:46;1.50;99.90
20728;DHT22;10525;50.154;8.198;2022-12-05T03:13:19;1.40;99.90
20728;DHT22;10525;50.154;8.198;2022-12-05T03:15:51;1.50;99.90
20728;DHT22;10525;50.154;8.198;2022-12-05T03:18:21;1.50;99.90
20728;DHT22;10525;50.154;8.198;2022-12-05T03:20:52;1.50;99.90
20728;DHT22;10525;50.154;8.198;2022-12-05T03:23:24;1.60;99.90
20728;DHT22;10525;50.154;8.198;2022-12-05T03:25:57;1.50;99.90
20728;DHT22;10525;50.154;8.198;2022-12-05T03:28:32;1.50;99.90
20728;DHT22;10525;50.154;8.198;2022-12-05T03:31:08;1.50;99.90
20728;DHT22;10525;50.154;8.198;2022-12-05T03:33:41;1.60;99.90
20728;DHT22;10525;50.154;8.198;2022-12-05T03:36:12;1.60;99.90
20728;DHT22;10525;50.154;8.198;2022-12-05T03:38:44;1.60;99.90
20728;DHT22;10525;50.154;8.198;2022-12-05T03:41:15;1.60;99.90
20728;DHT22;10525;50.154;8.198;2022-12-05T03:43:45;1.60;99.90
20728;DHT22;10525;50.154;8.198;2022-12-05T03:46:19;1.60;99.90
20728;DHT22;10525;50.154;8.198;2022-12-05T03:48:52;1.60;99.90
20728;DHT22;10525;50.154;8.198;2022-12-05T03:51:24;1.50;99.90
20728;DHT22;10525;50.154;8.198;2022-12-05T03:53:56;1.50;99.90
20728;DHT22;10525;50.154;8.198;2022-12-05T03:56:29;1.50;99.90
20728;DHT22;10525;50.154;8.198;2022-12-05T03:59:01;1.50;99.90
20728;DHT22;10525;50.154;8.198;2022-12-05T04:01:30;1.50;99.90
20728;DHT22;10525;50.154;8.198;2022-12-05T04:04:04;1.50;99.90
20728;DHT22;10525;50.154;8.198;2022-12-05T04:06:33;1.50;99.90
20728;DHT22;10525;50.154;8.198;2022-12-05T04:09:04;1.50;99.90
20728;DHT22;10525;50.154;8.198;2022-12-05T04:11:34;1.60;99.90
20728;DHT22;10525;50.154;8.198;2022-12-05T04:14:05;1.50;99.90
20728;DHT22;10525;50.154;8.198;2022-12-05T04:16:38;1.50;99.90
20728;DHT22;10525;50.154;8.198;2022-12-05T04:19:26;1.50;99.90
20728;DHT22;10525;50.154;8.198;2022-12-05T04:21:55;1.50;99.90
20728;DHT22;10525;50.154;8.198;2022-12-05T04:24:23;1.60;99.90
20728;DHT22;10525;50.154;8.198;2022-12-05T04:27:18;1.60;99.90
20728;DHT22;10525;50.154;8.198;2022-12-05T04:29:53;1.60;99.90
20728;DHT22;10525;50.154;8.198;2022-12-05T04:32:25;1.50;99.90
20728;DHT22;10525;50.154;8.198;2022-12-05T04:34:56;1.60;99.90
20728;DHT22;10525;50.154;8.198;2022-12-05T04:37:25;1.70;99.90
20728;DHT22;10525;50.154;8.198;2022-12-05T04:39:58;1.70;99.90
20728;DHT22;10525;50.154;8.198;2022-12-05T04:42:28;1.70;99.90
20728;DHT22;10525;50.154;8.198;2022-12-05T04:45:00;1.70;99.90
20728;DHT22;10525;50.154;8.198;2022-12-05T04:47:34;1.70;99.90
20728;DHT22;10525;50.154;8.198;2022-12-05T04:50:04;1.70;99.90
20728;DHT22;10525;50.154;8.198;2022-12-05T04:52:32;1.70;99.90
20728;DHT22;10525;50.154;8.198;2022-12-05T04:55:04;1.70;99.90
20728;DHT22;10525;50.154;8.198;2022-12-05T04:57:35;1.60;99.90
20728;DHT22;10525;50.154;8.198;2022-12-05T05:00:04;1.60;99.90
20728;DHT22;10525;50.154;8.198;2022-12-05T05:02:36;1.70;99.90
20728;DHT22;10525;50.154;8.198;2022-12-05T05:05:07;1.70;99.90
20728;DHT22;10525;50.154;8.198;2022-12-05T05:07:42;1.70;99.90
20728;DHT22;10525;50.154;8.198;2022-12-05T05:10:12;1.60;99.90
20728;DHT22;10525;50.154;8.198;2022-12-05T05:12:40;1.60;99.90
20728;DHT22;10525;50.154;8.198;2022-12-05T05:15:07;1.60;99.90
20728;DHT22;10525;50.154;8.198;2022-12-05T05:17:35;1.60;99.90
20728;DHT22;10525;50.154;8.198;2022-12-05T05:20:03;1.60;99.90
20728;DHT22;10525;50.154;8.198;2022-12-05T05:22:46;1.60;99.90
20728;DHT22;10525;50.154;8.198;2022-12-05T05:25:13;1.60;99.90
20728;DHT22;10525;50.154;8.198;2022-12-05T05:27:40;1.70;99.90
20728;DHT22;10525;50.154;8.198;2022-12-05T05:30:08;1.70;99.90
20728;DHT22;10525;50.154;8.198;2022-12-05T05:32:36;1.60;99.90
20728;DHT22;10525;50.154;8.198;2022-12-05T05:35:03;1.60;99.90
20728;DHT22;10525;50.154;8.198;2022-12-05T05:37:29;1.60;99.90
20728;DHT22;10525;50.154;8.198;2022-12-05T05:39:56;1.60;99.90
20728;DHT22;10525;50.154;8.198;2022-12-05T05:42:23;1.70;99.90
20728;DHT22;10525;50.154;8.198;2022-12-05T05:44:49;1.70;99.90
20728;DHT22;10525;50.154;8.198;2022-12-05T05:47:16;1.70;99.90
20728;DHT22;10525;50.154;8.198;2022-12-05T05:49:44;1.70;99.90
20728;DHT22;10525;50.154;8.198;2022-12-05T05:52:11;1.70;99.90
20728;DHT22;10525;50.154;8.198;2022-12-05T05:54:37;1.70;99.90
20728;DHT22;10525;50.154;8.198;2022-12-05T05:57:04;1.70;99.90
20728;DHT22;10525;50.154;8.198;2022-12-05T05:59:31;1.70;99.90
20728;DHT22;10525;50.154;8.198;2022-12-05T06:01:57;1.70;99.90
20728;DHT22;10525;50.154;8.198;2022-12-05T06:04:24;1.60;99.90
20728;DHT22;10525;50.154;8.198;2022-12-05T06:06:52;1.70;99.90
20728;DHT22;10525;50.154;8.198;2022-12-05T06:09:19;1.80;99.90
20728;DHT22;10525;50.154;8.198;2022-12-05T06:11:46;1.80;99.90
20728;DHT22;10525;50.154;8.198;2022-12-05T06:14:12;1.70;99.90
20728;DHT22;10525;50.154;8.198;2022-12-05T06:16:39;1.70;99.90
20728;DHT22;10525;50.154;8.198;2022-12-05T06:19:06;1.70;99.90
20728;DHT22;10525;50.154;8.198;2022-12-05T06:21:32;1.70;99.90
20728;DHT22;10525;50.154;8.198;2022-12-05T06:24:00;1.70;99.90
20728;DHT22;10525;50.154;8.198;2022-12-05T06:26:27;1.70;99.90
20728;DHT22;10525;50.154;8.198;2022-12-05T06:28:54;1.70;99.90
20728;DHT22;10525;50.154;8.198;2022-12-05T06:31:21;1.70;99.90
20728;DHT22;10525;50.154;8.198;2022-12-05T06:33:49;1.70;99.90
20728;DHT22;10525;50.154;8.198;2022-12-05T06:36:18;1.60;99.90
20728;DHT22;10525;50.154;8.198;2022-12-05T06:38:45;1.70;99.90
20728;DHT22;10525;50.154;8.198;2022-12-05T06:41:15;1.60;99.90
20728;DHT22;10525;50.154;8.198;2022-12-05T06:43:42;1.60;99.90
20728;DHT22;10525;50.154;8.198;2022-12-05T06:46:12;1.60;99.90
20728;DHT22;10525;50.154;8.198;2022-12-05T06:48:39;1.70;99.90
20728;DHT22;10525;50.154;8.198;2022-12-05T06:51:08;1.70;99.90
20728;DHT22;10525;50.154;8.198;2022-12-05T06:53:35;1.60;99.90
20728;DHT22;10525;50.154;8.198;2022-12-05T06:56:03;1.60;99.90
20728;DHT22;10525;50.154;8.198;2022-12-05T06:58:33;1.70;99.90
20728;DHT22;10525;50.154;8.198;2022-12-05T07:00:59;1.60;99.90
20728;DHT22;10525;50.154;8.198;2022-12-05T07:03:44;1.60;99.90
20728;DHT22;10525;50.154;8.198;2022-12-05T07:06:13;1.60;99.90
20728;DHT22;10525;50.154;8.198;2022-12-05T07:08:40;1.70;99.90
20728;DHT22;10525;50.154;8.198;2022-12-05T07:11:07;1.70;99.90
20728;DHT22;10525;50.154;8.198;2022-12-05T07:13:35;1.70;99.90
20728;DHT22;10525;50.154;8.198;2022-12-05T07:16:02;1.80;99.90
20728;DHT22;10525;50.154;8.198;2022-12-05T07:18:31;1.70;99.90
20728;DHT22;10525;50.154;8.198;2022-12-05T07:21:00;1.70;99.90
20728;DHT22;10525;50.154;8.198;2022-12-05T07:23:27;1.70;99.90
20728;DHT22;10525;50.154;8.198;2022-12-05T07:25:53;1.70;99.90
20728;DHT22;10525;50.154;8.198;2022-12-05T07:28:23;1.80;99.90
20728;DHT22;10525;50.154;8.198;2022-12-05T07:30:59;1.90;99.90
20728;DHT22;10525;50.154;8.198;2022-12-05T07:33:26;1.80;99.90
20728;DHT22;10525;50.154;8.198;2022-12-05T07:35:58;1.80;99.90
20728;DHT22;10525;50.154;8.198;2022-12-05T07:38:26;1.70;99.90
20728;DHT22;10525;50.154;8.198;2022-12-05T07:40:52;1.80;99.90
20728;DHT22;10525;50.154;8.198;2022-12-05T07:43:19;1.80;99.90
20728;DHT22;10525;50.154;8.198;2022-12-05T07:45:46;1.80;99.90
20728;DHT22;10525;50.154;8.198;2022-12-05T07:48:14;1.80;99.90
20728;DHT22;10525;50.154;8.198;2022-12-05T07:50:40;1.90;99.90
20728;DHT22;10525;50.154;8.198;2022-12-05T07:53:07;1.90;99.90
20728;DHT22;10525;50.154;8.198;2022-12-05T07:55:34;1.90;99.90
20728;DHT22;10525;50.154;8.198;2022-12-05T07:58:02;2.00;99.90
20728;DHT22;10525;50.154;8.198;2022-12-05T08:00:29;2.00;99.90
20728;DHT22;10525;50.154;8.198;2022-12-05T08:02:56;2.00;99.90
20728;DHT22;10525;50.154;8.198;2022-12-05T08:05:24;2.10;99.90
20728;DHT22;10525;50.154;8.198;2022-12-05T08:07:50;2.10;99.90
20728;DHT22;10525;50.154;8.198;2022-12-05T08:10:17;2.10;99.90
20728;DHT22;10525;50.154;8.198;2022-12-05T08:12:44;2.20;99.90
20728;DHT22;10525;50.154;8.198;2022-12-05T08:15:10;2.30;99.90
20728;DHT22;10525;50.154;8.198;2022-12-05T08:17:37;2.30;99.90
20728;DHT22;10525;50.154;8.198;2022-12-05T08:20:05;2.30;99.90
20728;DHT22;10525;50.154;8.198;2022-12-05T08:22:33;2.30;99.90
20728;DHT22;10525;50.154;8.198;2022-12-05T08:25:00;2.30;99.90
20728;DHT22;10525;50.154;8.198;2022-12-05T08:27:27;2.30;99.90
20728;DHT22;10525;50.154;8.198;2022-12-05T08:29:53;2.30;99.90
20728;DHT22;10525;50.154;8.198;2022-12-05T08:32:20;2.30;99.90
20728;DHT22;10525;50.154;8.198;2022-12-05T08:34:47;2.30;99.90
20728;DHT22;10525;50.154;8.198;2022-12-05T08:37:13;2.30;99.90
20728;DHT22;10525;50.154;8.198;2022-12-05T08:39:41;2.40;99.90
20728;DHT22;10525;50.154;8.198;2022-12-05T08:42:08;2.50;99.90
20728;DHT22;10525;50.154;8.198;2022-12-05T08:44:35;2.60;99.90
20728;DHT22;10525;50.154;8.198;2022-12-05T08:47:01;2.60;99.90
20728;DHT22;10525;50.154;8.198;2022-12-05T08:49:28;2.50;99.90
20728;DHT22;10525;50.154;8.198;2022-12-05T08:51:55;2.60;99.90
20728;DHT22;10525;50.154;8.198;2022-12-05T08:54:21;2.70;99.90
20728;DHT22;10525;50.154;8.198;2022-12-05T08:56:50;2.60;99.90
20728;DHT22;10525;50.154;8.198;2022-12-05T08:59:17;2.50;99.90
20728;DHT22;10525;50.154;8.198;2022-12-05T09:01:44;2.50;99.90
20728;DHT22;10525;50.154;8.198;2022-12-05T09:04:11;2.40;99.90
20728;DHT22;10525;50.154;8.198;2022-12-05T09:06:38;2.40;99.90
20728;DHT22;10525;50.154;8.198;2022-12-05T09:09:06;2.30;99.90
20728;DHT22;10525;50.154;8.198;2022-12-05T09:11:35;2.40;99.90
20728;DHT22;10525;50.154;8.198;2022-12-05T09:14:03;2.40;99.90
20728;DHT22;10525;50.154;8.198;2022-12-05T09:16:31;2.40;99.90
20728;DHT22;10525;50.154;8.198;2022-12-05T09:18:58;2.50;99.90
20728;DHT22;10525;50.154;8.198;2022-12-05T09:21:27;2.50;99.90
20728;DHT22;10525;50.154;8.198;2022-12-05T09:23:54;2.60;99.90
20728;DHT22;10525;50.154;8.198;2022-12-05T09:26:23;2.60;99.90
20728;DHT22;10525;50.154;8.198;2022-12-05T09:28:50;2.60;99.90
20728;DHT22;10525;50.154;8.198;2022-12-05T09:31:20;2.70;99.90
20728;DHT22;10525;50.154;8.198;2022-12-05T09:33:48;2.70;99.90
20728;DHT22;10525;50.154;8.198;2022-12-05T09:36:19;2.80;99.90
20728;DHT22;10525;50.154;8.198;2022-12-05T09:38:46;2.70;99.90
20728;DHT22;10525;50.154;8.198;2022-12-05T09:41:22;2.80;99.90
20728;DHT22;10525;50.154;8.198;2022-12-05T09:44:16;2.90;99.90
20728;DHT22;10525;50.154;8.198;2022-12-05T09:46:52;2.90;99.90
20728;DHT22;10525;50.154;8.198;2022-12-05T09:49:20;3.00;99.90
20728;DHT22;10525;50.154;8.198;2022-12-05T09:51:50;3.00;99.90
20728;DHT22;10525;50.154;8.198;2022-12-05T09:54:18;3.00;99.90
20728;DHT22;10525;50.154;8.198;2022-12-05T09:56:48;3.00;99.90
20728;DHT22;10525;50.154;8.198;2022-12-05T09:59:15;3.10;99.90
20728;DHT22;10525;50.154;8.198;2022-12-05T10:01:50;3.00;99.90
20728;DHT22;10525;50.154;8.198;2022-12-05T10:04:36;3.10;99.90
20728;DHT22;10525;50.154;8.198;2022-12-05T10:07:14;3.10;99.90
20728;DHT22;10525;50.154;8.198;2022-12-05T10:09:52;3.10;99.90
20728;DHT22;10525;50.154;8.198;2022-12-05T10:12:39;3.20;99.90
20728;DHT22;10525;50.154;8.198;2022-12-05T10:15:12;3.20;99.90
20728;DHT22;10525;50.154;8.198;2022-12-05T10:17:45;3.10;99.90
20728;DHT22;10525;50.154;8.198;2022-12-05T10:20:19;3.20;99.90
20728;DHT22;10525;50.154;8.198;2022-12-05T10:22:51;3.20;99.90
20728;DHT22;10525;50.154;8.198;2022-12-05T10:25:19;3.10;99.90
20728;DHT22;10525;50.154;8.198;2022-12-05T10:27:50;3.10;99.90
20728;DHT22;10525;50.154;8.198;2022-12-05T10:30:20;3.10;99.90
20728;DHT22;10525;50.154;8.198;2022-12-05T10:32:53;3.00;99.90
20728;DHT22;10525;50.154;8.198;2022-12-05T10:35:22;3.10;99.90
20728;DHT22;10525;50.154;8.198;2022-12-05T10:37:50;3.10;99.90
20728;DHT22;10525;50.154;8.198;2022-12-05T10:40:18;3.10;99.90
20728;DHT22;10525;50.154;8.198;2022-12-05T10:42:46;3.10;99.90
20728;DHT22;10525;50.154;8.198;2022-12-05T10:45:17;3.10;99.90
20728;DHT22;10525;50.154;8.198;2022-12-05T10:47:44;3.20;99.90
20728;DHT22;10525;50.154;8.198;2022-12-05T10:50:34;3.20;99.90
20728;DHT22;10525;50.154;8.198;2022-12-05T10:53:04;3.20;99.90
20728;DHT22;10525;50.154;8.198;2022-12-05T10:55:36;3.00;99.90
20728;DHT22;10525;50.154;8.198;2022-12-05T10:58:11;3.00;99.90
20728;DHT22;10525;50.154;8.198;2022-12-05T11:00:38;3.10;99.90
20728;DHT22;10525;50.154;8.198;2022-12-05T11:03:22;3.20;99.90
20728;DHT22;10525;50.154;8.198;2022-12-05T11:05:53;3.30;99.90
20728;DHT22;10525;50.154;8.198;2022-12-05T11:08:22;3.30;99.90
20728;DHT22;10525;50.154;8.198;2022-12-05T11:10:59;3.10;99.90
20728;DHT22;10525;50.154;8.198;2022-12-05T11:13:27;3.20;99.90
20728;DHT22;10525;50.154;8.198;2022-12-05T11:15:54;3.20;99.90
20728;DHT22;10525;50.154;8.198;2022-12-05T11:18:28;3.20;99.90
20728;DHT22;10525;50.154;8.198;2022-12-05T11:21:08;3.20;99.90
20728;DHT22;10525;50.154;8.198;2022-12-05T11:23:35;3.30;99.90
20728;DHT22;10525;50.154;8.198;2022-12-05T11:26:02;3.40;99.90
20728;DHT22;10525;50.154;8.198;2022-12-05T11:28:34;3.60;99.90
20728;DHT22;10525;50.154;8.198;2022-12-05T11:31:03;3.70;99.90
20728;DHT22;10525;50.154;8.198;2022-12-05T11:33:32;3.60;99.90
20728;DHT22;10525;50.154;8.198;2022-12-05T11:36:05;3.60;99.90
20728;DHT22;10525;50.154;8.198;2022-12-05T11:38:35;3.60;99.90
20728;DHT22;10525;50.154;8.198;2022-12-05T11:41:15;3.60;99.90
20728;DHT22;10525;50.154;8.198;2022-12-05T11:44:12;3.60;99.90
20728;DHT22;10525;50.154;8.198;2022-12-05T11:46:51;3.70;99.90
20728;DHT22;10525;50.154;8.198;2022-12-05T11:49:35;3.60;99.90
20728;DHT22;10525;50.154;8.198;2022-12-05T11:52:15;3.50;99.90
20728;DHT22;10525;50.154;8.198;2022-12-05T11:54:56;3.40;99.90
20728;DHT22;10525;50.154;8.198;2022-12-05T12:00:22;3.30;99.90
20728;DHT22;10525;50.154;8.198;2022-12-05T12:03:17;3.50;99.90
20728;DHT22;10525;50.154;8.198;2022-12-05T12:05:59;3.50;99.90
20728;DHT22;10525;50.154;8.198;2022-12-05T12:08:34;3.60;99.90
20728;DHT22;10525;50.154;8.198;2022-12-05T12:11:07;3.70;99.90
20728;DHT22;10525;50.154;8.198;2022-12-05T12:13:48;3.70;99.90
20728;DHT22;10525;50.154;8.198;2022-12-05T12:16:20;3.60;99.90
20728;DHT22;10525;50.154;8.198;2022-12-05T12:19:06;3.50;99.90
20728;DHT22;10525;50.154;8.198;2022-12-05T12:21:50;3.40;99.90
20728;DHT22;10525;50.154;8.198;2022-12-05T12:24:32;3.50;99.90
20728;DHT22;10525;50.154;8.198;2022-12-05T12:27:12;3.40;99.90
20728;DHT22;10525;50.154;8.198;2022-12-05T12:29:51;3.40;99.90
20728;DHT22;10525;50.154;8.198;2022-12-05T12:32:32;3.40;99.90
20728;DHT22;10525;50.154;8.198;2022-12-05T12:35:12;3.40;99.90
20728;DHT22;10525;50.154;8.198;2022-12-05T12:37:49;3.40;99.90
20728;DHT22;10525;50.154;8.198;2022-12-05T12:40:21;3.50;99.90
20728;DHT22;10525;50.154;8.198;2022-12-05T12:42:55;3.40;99.90
20728;DHT22;10525;50.154;8.198;2022-12-05T12:45:47;3.30;99.90
20728;DHT22;10525;50.154;8.198;2022-12-05T12:48:29;3.30;99.90
20728;DHT22;10525;50.154;8.198;2022-12-05T12:51:00;3.20;99.90
20728;DHT22;10525;50.154;8.198;2022-12-05T12:53:36;3.30;99.90
20728;DHT22;10525;50.154;8.198;2022-12-05T12:56:18;3.30;99.90
20728;DHT22;10525;50.154;8.198;2022-12-05T12:58:50;3.40;99.90
20728;DHT22;10525;50.154;8.198;2022-12-05T13:01:27;3.40;99.90
20728;DHT22;10525;50.154;8.198;2022-12-05T13:03:59;3.40;99.90
20728;DHT22;10525;50.154;8.198;2022-12-05T13:06:32;3.30;99.90
20728;DHT22;10525;50.154;8.198;2022-12-05T13:09:02;3.20;99.90
20728;DHT22;10525;50.154;8.198;2022-12-05T13:11:36;3.20;99.90
20728;DHT22;10525;50.154;8.198;2022-12-05T13:14:08;3.20;99.90
20728;DHT22;10525;50.154;8.198;2022-12-05T13:16:39;3.20;99.90
20728;DHT22;10525;50.154;8.198;2022-12-05T13:19:18;3.30;99.90
20728;DHT22;10525;50.154;8.198;2022-12-05T13:21:45;3.30;99.90
20728;DHT22;10525;50.154;8.198;2022-12-05T13:24:12;3.30;99.90
20728;DHT22;10525;50.154;8.198;2022-12-05T13:26:47;3.30;99.90
20728;DHT22;10525;50.154;8.198;2022-12-05T13:29:19;3.20;99.90
20728;DHT22;10525;50.154;8.198;2022-12-05T13:31:47;3.20;99.90
20728;DHT22;10525;50.154;8.198;2022-12-05T13:34:46;3.30;99.90
20728;DHT22;10525;50.154;8.198;2022-12-05T13:37:19;3.30;99.90
20728;DHT22;10525;50.154;8.198;2022-12-05T13:43:13;3.30;99.90
20728;DHT22;10525;50.154;8.198;2022-12-05T13:45:50;3.30;99.90
20728;DHT22;10525;50.154;8.198;2022-12-05T13:48:21;3.40;99.90
20728;DHT22;10525;50.154;8.198;2022-12-05T13:50:54;3.30;99.90
20728;DHT22;10525;50.154;8.198;2022-12-05T13:53:29;3.30;99.90
20728;DHT22;10525;50.154;8.198;2022-12-05T13:56:00;3.30;99.90
20728;DHT22;10525;50.154;8.198;2022-12-05T13:58:44;3.30;99.90
20728;DHT22;10525;50.154;8.198;2022-12-05T14:01:47;3.30;99.90
20728;DHT22;10525;50.154;8.198;2022-12-05T14:07:39;3.30;99.90
20728;DHT22;10525;50.154;8.198;2022-12-05T14:10:09;3.30;99.90
20728;DHT22;10525;50.154;8.198;2022-12-05T14:12:49;3.30;99.90
20728;DHT22;10525;50.154;8.198;2022-12-05T14:15:30;3.30;99.90
20728;DHT22;10525;50.154;8.198;2022-12-05T14:18:09;3.30;99.90
20728;DHT22;10525;50.154;8.198;2022-12-05T14:20:51;3.20;99.90
20728;DHT22;10525;50.154;8.198;2022-12-05T14:23:42;3.20;99.90
20728;DHT22;10525;50.154;8.198;2022-12-05T14:26:26;3.20;99.90
20728;DHT22;10525;50.154;8.198;2022-12-05T14:29:06;3.20;99.90
20728;DHT22;10525;50.154;8.198;2022-12-05T14:31:49;3.20;99.90
20728;DHT22;10525;50.154;8.198;2022-12-05T14:34:21;3.20;99.90
20728;DHT22;10525;50.154;8.198;2022-12-05T14:36:54;3.20;99.90
20728;DHT22;10525;50.154;8.198;2022-12-05T14:39:26;3.20;99.90
20728;DHT22;10525;50.154;8.198;2022-12-05T14:41:56;3.20;99.90
20728;DHT22;10525;50.154;8.198;2022-12-05T14:44:23;3.20;99.90
20728;DHT22;10525;50.154;8.198;2022-12-05T14:46:58;3.20;99.90
20728;DHT22;10525;50.154;8.198;2022-12-05T14:49:35;3.10;99.90
20728;DHT22;10525;50.154;8.198;2022-12-05T14:52:19;3.10;99.90
20728;DHT22;10525;50.154;8.198;2022-12-05T14:54:46;3.20;99.90
20728;DHT22;10525;50.154;8.198;2022-12-05T14:57:14;3.20;99.90
20728;DHT22;10525;50.154;8.198;2022-12-05T14:59:45;3.10;99.90
20728;DHT22;10525;50.154;8.198;2022-12-05T15:02:21;3.10;99.90
20728;DHT22;10525;50.154;8.198;2022-12-05T15:04:53;3.10;99.90
20728;DHT22;10525;50.154;8.198;2022-12-05T15:07:28;3.10;99.90
20728;DHT22;10525;50.154;8.198;2022-12-05T15:09:56;3.00;99.90
20728;DHT22;10525;50.154;8.198;2022-12-05T15:12:25;3.00;99.90
20728;DHT22;10525;50.154;8.198;2022-12-05T15:15:02;3.00;99.90
20728;DHT22;10525;50.154;8.198;2022-12-05T15:17:36;3.10;99.90
20728;DHT22;10525;50.154;8.198;2022-12-05T15:20:10;3.10;99.90
20728;DHT22;10525;50.154;8.198;2022-12-05T15:22:40;3.00;99.90
20728;DHT22;10525;50.154;8.198;2022-12-05T15:25:14;3.00;99.90
20728;DHT22;10525;50.154;8.198;2022-12-05T15:27:52;3.00;99.90
20728;DHT22;10525;50.154;8.198;2022-12-05T15:30:19;3.00;99.90
20728;DHT22;10525;50.154;8.198;2022-12-05T15:32:47;3.00;99.90
20728;DHT22;10525;50.154;8.198;2022-12-05T15:35:14;3.00;99.90
20728;DHT22;10525;50.154;8.198;2022-12-05T15:37:47;3.00;99.90
20728;DHT22;10525;50.154;8.198;2022-12-05T15:40:17;3.00;99.90
20728;DHT22;10525;50.154;8.198;2022-12-05T15:42:47;3.00;99.90
20728;DHT22;10525;50.154;8.198;2022-12-05T15:45:17;3.00;99.90
20728;DHT22;10525;50.154;8.198;2022-12-05T15:47:49;3.00;99.90
20728;DHT22;10525;50.154;8.198;2022-12-05T15:50:24;3.00;99.90
20728;DHT22;10525;50.154;8.198;2022-12-05T15:52:53;3.00;99.90
20728;DHT22;10525;50.154;8.198;2022-12-05T15:55:28;3.00;99.90
20728;DHT22;10525;50.154;8.198;2022-12-05T15:57:59;3.00;99.90
20728;DHT22;10525;50.154;8.198;2022-12-05T16:00:29;2.90;99.90
20728;DHT22;10525;50.154;8.198;2022-12-05T16:03:01;2.90;99.90
20728;DHT22;10525;50.154;8.198;2022-12-05T16:05:32;3.00;99.90
20728;DHT22;10525;50.154;8.198;2022-12-05T16:08:01;3.00;99.90
20728;DHT22;10525;50.154;8.198;2022-12-05T16:10:29;3.10;99.90
20728;DHT22;10525;50.154;8.198;2022-12-05T16:13:02;3.10;99.90
20728;DHT22;10525;50.154;8.198;2022-12-05T16:15:29;3.10;99.90
20728;DHT22;10525;50.154;8.198;2022-12-05T16:18:00;3.10;99.90
20728;DHT22;10525;50.154;8.198;2022-12-05T16:20:29;3.10;99.90